Time;durP1;ratioP1;P1;durP2;ratioP2;P2;SDS_P1;SDS_P2;PMS_P1;PMS_P2;Temp;Humidity;BMP_temperature;BMP_pressure;BME280_temperature;BME280_humidity;BME280_pressure;Samples;Min_cycle;Max_cycle;Signal;HPM_P1;HPM_P2
2022/05/10 00:03:07;;;;;;;8.28;4.60;;;;;;;5.60;54.66;101686.45;3534553;79;20934;-77
2022/05/10 00:08:02;;;;;;;7.00;4.47;;;;;;;5.56;54.66;101688.39;3580035;79;21447;-77
2022/05/10 00:12:53;;;;;;;7.75;4.87;;;;;;;5.54;54.62;101680.57;3551252;79;21021;-77
2022/05/10 00:17:47;;;;;;;9.25;4.55;;;;;;;5.50;54.57;101682.09;3524348;79;20926;-77
2022/05/10 00:22:38;;;;;;;7.40;5.30;;;;;;;5.43;54.97;101679.12;3555430;79;21075;-77
2022/05/10 00:27:29;;;;;;;7.95;5.33;;;;;;;5.41;54.96;101680.73;3456596;80;20990;-77
2022/05/10 00:32:23;;;;;;;16.85;6.10;;;;;;;5.32;55.37;101669.11;3511392;80;21000;-77
2022/05/10 00:37:18;;;;;;;17.32;5.72;;;;;;;5.22;55.42;101671.99;3536653;80;21065;-77
2022/05/10 00:42:22;;;;;;;10.00;5.22;;;;;;;5.21;55.31;101666.38;3530232;80;20938;-77
2022/05/10 00:47:49;;;;;;;7.58;4.65;;;;;;;5.25;55.35;101659.27;3523123;80;21433;-77
2022/05/10 00:53:03;;;;;;;6.58;4.70;;;;;;;5.22;55.43;101663.38;3485831;80;21029;-77
2022/05/10 00:58:03;;;;;;;13.53;5.83;;;;;;;5.21;55.63;101659.92;3443519;81;20955;-76
2022/05/10 01:03:36;;;;;;;7.25;4.90;;;;;;;5.17;55.41;101652.84;3491233;81;20931;-76
2022/05/10 01:08:34;;;;;;;9.90;5.78;;;;;;;5.15;55.47;101651.84;3488454;81;20880;-77
2022/05/10 01:13:42;;;;;;;15.50;8.55;;;;;;;5.09;55.49;101655.39;3425891;81;39228;-77
2022/05/10 01:18:35;;;;;;;10.55;5.97;;;;;;;5.35;55.16;101644.78;3440247;81;21018;-77
2022/05/10 01:23:50;;;;;;;8.23;5.25;;;;;;;5.20;55.35;101640.09;3472986;81;20957;-77
2022/05/10 01:28:51;;;;;;;8.60;5.50;;;;;;;5.12;55.24;101639.69;3552196;80;20926;-77
2022/05/10 01:33:51;;;;;;;6.12;4.87;;;;;;;5.06;55.48;101635.88;3578727;78;20991;-77
2022/05/10 01:39:06;;;;;;;9.15;5.10;;;;;;;5.00;55.58;101628.71;3594740;78;20944;-77
2022/05/10 01:44:15;;;;;;;10.48;5.08;;;;;;;4.93;55.99;101630.06;3618132;78;20969;-77
2022/05/10 01:49:31;;;;;;;8.93;5.30;;;;;;;4.86;55.87;101625.79;3597756;78;20994;-77
2022/05/10 01:54:43;;;;;;;10.45;5.20;;;;;;;4.72;55.58;101623.73;3564826;78;20983;-77
2022/05/10 01:59:34;;;;;;;8.18;4.42;;;;;;;4.63;56.09;101615.50;3386914;81;20960;-77
2022/05/10 02:04:30;;;;;;;6.80;4.05;;;;;;;4.54;56.48;101611.63;3357750;81;22049;-77
2022/05/10 02:09:29;;;;;;;6.25;4.08;;;;;;;4.48;56.64;101607.41;3420943;80;21602;-77
2022/05/10 02:14:29;;;;;;;9.25;4.90;;;;;;;4.38;56.45;101607.69;3394151;81;21540;-77
2022/05/10 02:19:40;;;;;;;10.05;5.65;;;;;;;4.26;56.56;101616.03;3391432;81;20968;-77
2022/05/10 02:24:42;;;;;;;8.73;5.10;;;;;;;4.22;56.58;101621.78;3364538;82;20978;-77
2022/05/10 02:29:45;;;;;;;8.88;4.78;;;;;;;4.11;56.58;101610.47;3361886;82;20968;-77
2022/05/10 02:34:42;;;;;;;7.08;4.30;;;;;;;3.96;56.60;101623.75;3445422;78;20919;-77
2022/05/10 02:39:33;;;;;;;7.97;5.75;;;;;;;3.87;56.96;101621.94;3511906;78;21013;-77
2022/05/10 02:44:24;;;;;;;9.65;4.70;;;;;;;3.81;57.40;101618.61;3518731;78;21515;-77
2022/05/10 02:49:15;;;;;;;8.33;5.05;;;;;;;3.77;57.25;101617.55;3539483;78;21009;-77
2022/05/10 02:54:06;;;;;;;9.50;4.97;;;;;;;3.69;57.11;101614.02;3539865;78;21885;-77
2022/05/10 02:59:18;;;;;;;7.08;5.40;;;;;;;3.56;57.04;101611.09;3512828;78;20911;-77
2022/05/10 03:04:12;;;;;;;9.30;4.90;;;;;;;3.50;57.27;101610.75;3493616;80;21021;-77
2022/05/10 03:09:05;;;;;;;7.05;5.00;;;;;;;3.47;57.68;101605.41;3502101;81;21005;-77
2022/05/10 03:13:56;;;;;;;8.38;5.08;;;;;;;3.33;57.32;101605.48;3487685;80;20939;-76
2022/05/10 03:18:47;;;;;;;6.92;4.45;;;;;;;3.27;57.57;101601.23;3541654;78;21051;-77
2022/05/10 03:23:39;;;;;;;8.83;5.47;;;;;;;3.24;57.74;101602.36;3568328;78;21503;-77
2022/05/10 03:28:31;;;;;;;10.95;4.70;;;;;;;3.19;57.72;101598.22;3499464;80;21471;-77
2022/05/10 03:33:22;;;;;;;8.90;4.53;;;;;;;3.17;58.06;101595.08;3561130;79;21472;-77
2022/05/10 03:38:14;;;;;;;8.78;5.17;;;;;;;3.18;58.36;101583.61;3511103;80;20986;-77
2022/05/10 03:43:08;;;;;;;6.03;4.28;;;;;;;3.41;58.30;101586.25;3577291;78;21952;-77
2022/05/10 03:47:59;;;;;;;6.70;4.50;;;;;;;3.92;57.81;101581.93;3509583;80;20966;-77
2022/05/10 03:52:51;;;;;;;8.90;4.83;;;;;;;4.66;56.91;101579.62;3604728;78;20942;-77
2022/05/10 03:57:44;;;;;;;9.83;5.20;;;;;;;4.52;56.88;101579.73;3507630;79;20978;-77
2022/05/10 04:02:35;;;;;;;13.43;4.80;;;;;;;4.52;56.75;101572.00;3539054;78;21479;-77
2022/05/10 04:07:27;;;;;;;8.63;5.10;;;;;;;4.40;57.04;101572.64;3548953;77;21934;-77
2022/05/10 04:12:18;;;;;;;8.93;4.80;;;;;;;4.41;57.03;101567.95;3503365;80;20998;-77
2022/05/10 04:17:09;;;;;;;8.83;4.90;;;;;;;4.77;56.94;101573.34;3608615;78;20997;-77
2022/05/10 04:22:01;;;;;;;9.58;5.65;;;;;;;4.93;56.73;101575.94;3575887;78;20954;-77
2022/05/10 04:26:52;;;;;;;15.40;5.87;;;;;;;4.80;56.82;101573.94;3582102;78;21003;-77
2022/05/10 04:31:43;;;;;;;14.10;5.22;;;;;;;4.64;57.05;101578.66;3544834;78;22020;-77
2022/05/10 04:36:36;;;;;;;12.83;4.97;;;;;;;4.54;57.66;101575.58;3541791;78;20979;-77
2022/05/10 04:41:35;;;;;;;10.48;5.10;;;;;;;4.48;57.84;101579.09;3606074;78;21096;-76
2022/05/10 04:46:28;;;;;;;11.68;5.60;;;;;;;4.54;57.98;101579.44;3619344;78;20998;-76
2022/05/10 04:51:19;;;;;;;7.97;4.92;;;;;;;4.65;58.31;101588.13;3580304;78;20961;-76
2022/05/10 04:56:10;;;;;;;11.78;6.65;;;;;;;4.77;58.40;101582.37;3608953;78;21007;-76
2022/05/10 05:01:06;;;;;;;9.73;4.92;;;;;;;4.94;58.63;101585.45;3647611;78;20921;-77
2022/05/10 05:05:58;;;;;;;7.15;3.72;;;;;;;5.14;59.00;101581.36;3614165;78;20934;-77
2022/05/10 05:10:50;;;;;;;5.53;3.47;;;;;;;5.33;58.38;101580.64;3570265;78;20953;-77
2022/05/10 05:15:41;;;;;;;5.15;3.67;;;;;;;5.55;58.14;101576.59;3591816;78;21037;-77
2022/05/10 05:20:32;;;;;;;6.92;5.25;;;;;;;5.79;57.76;101576.05;3562966;78;21070;-76
2022/05/10 05:25:23;;;;;;;4.55;3.62;;;;;;;6.03;57.69;101572.14;3574386;78;20943;-77
2022/05/10 05:30:15;;;;;;;6.85;3.75;;;;;;;6.31;57.30;101570.88;3628245;78;21402;-77
2022/05/10 05:35:08;;;;;;;7.08;3.25;;;;;;;6.58;56.57;101571.33;3572815;78;20923;-77
2022/05/10 05:40:08;;;;;;;5.50;2.83;;;;;;;6.89;56.38;101573.16;3565534;78;20994;-77
2022/05/10 05:44:59;;;;;;;4.78;2.35;;;;;;;7.19;55.72;101570.65;3585332;78;22617;-77
2022/05/10 05:49:50;;;;;;;3.75;2.33;;;;;;;7.54;55.34;101580.34;3597767;78;20943;-77
2022/05/10 05:54:43;;;;;;;4.17;2.50;;;;;;;7.86;54.61;101582.13;3589194;78;21738;-77
2022/05/10 05:59:35;;;;;;;4.40;2.10;;;;;;;8.27;53.57;101569.98;3559878;78;21000;-77
2022/05/10 06:04:26;;;;;;;3.90;2.33;;;;;;;9.19;52.11;101567.86;3543879;78;20895;-77
2022/05/10 06:09:22;;;;;;;2.92;2.22;;;;;;;10.99;50.74;101564.64;3589225;78;21508;-77
2022/05/10 06:14:11;;;;;;;8.30;2.62;;;;;;;11.83;48.45;101566.03;3604811;78;21014;-78
2022/05/10 06:19:02;;;;;;;1.90;1.73;;;;;;;14.66;45.36;101547.21;3522913;80;20981;-76
2022/05/10 06:23:53;;;;;;;4.33;2.10;;;;;;;17.50;40.31;101539.32;3514595;80;22100;-76
2022/05/10 06:28:45;;;;;;;5.23;1.90;;;;;;;17.29;40.98;101536.66;3515196;80;22378;-76
2022/05/10 06:33:37;;;;;;;3.27;2.00;;;;;;;18.20;39.10;101517.86;3536248;78;21363;-76
2022/05/10 06:38:28;;;;;;;3.45;1.80;;;;;;;18.50;37.00;101524.38;3620100;78;20904;-77
2022/05/10 06:43:20;;;;;;;4.15;1.65;;;;;;;18.67;36.60;101526.50;3553373;78;21164;-77
2022/05/10 06:48:12;;;;;;;3.72;1.90;;;;;;;18.06;36.54;101514.38;3536843;78;20943;-77
2022/05/10 06:53:07;;;;;;;1.98;1.50;;;;;;;17.68;36.40;101512.61;3556658;78;20940;-76
2022/05/10 06:58:04;;;;;;;3.27;1.90;;;;;;;18.43;35.91;101507.72;3578582;78;22069;-76
2022/05/10 07:02:52;;;;;;;5.35;2.10;;;;;;;20.47;33.94;101501.46;3611509;78;20935;-76
2022/05/10 07:07:43;;;;;;;4.53;1.90;;;;;;;22.08;31.78;101498.68;3547495;80;20903;-76
2022/05/10 07:12:41;;;;;;;2.67;1.70;;;;;;;22.45;30.77;101502.85;3589289;78;21017;-77
2022/05/10 07:17:32;;;;;;;2.00;1.80;;;;;;;24.25;28.57;101496.88;3595130;78;20907;-77
2022/05/10 07:22:25;;;;;;;7.03;2.47;;;;;;;27.41;26.25;101482.19;3593061;78;21192;-78
2022/05/10 07:27:16;;;;;;;3.65;2.40;;;;;;;30.86;22.20;101480.25;3623061;78;20946;-78
2022/05/10 07:32:08;;;;;;;2.37;2.12;;;;;;;33.28;21.99;101474.44;3596568;78;21535;-78
2022/05/10 07:36:59;;;;;;;3.17;2.12;;;;;;;35.01;19.86;101484.82;3572409;78;21450;-78
2022/05/10 07:41:53;;;;;;;8.28;3.72;;;;;;;35.95;18.79;101468.25;3623350;78;20980;-79
2022/05/10 07:46:43;;;;;;;3.00;2.23;;;;;;;37.01;17.88;101466.95;3600758;78;21363;-78
2022/05/10 07:51:35;;;;;;;2.95;2.00;;;;;;;37.88;16.59;101463.22;3570946;78;20960;-79
2022/05/10 07:56:26;;;;;;;5.08;2.67;;;;;;;37.88;15.89;101465.93;3606224;78;21504;-78
2022/05/10 08:01:17;;;;;;;3.55;1.95;;;;;;;35.25;17.14;101470.00;3616284;78;20936;-78
2022/05/10 08:06:09;;;;;;;2.92;2.15;;;;;;;31.55;17.97;101470.94;3614166;78;20966;-78
2022/05/10 08:11:03;;;;;;;4.12;2.25;;;;;;;28.84;18.91;101468.71;3542133;78;21138;-78
2022/05/10 08:15:55;;;;;;;3.63;2.20;;;;;;;30.30;17.57;101469.86;3572466;78;21093;-78
2022/05/10 08:20:47;;;;;;;2.75;2.10;;;;;;;31.44;17.31;101472.86;3598381;78;20974;-78
2022/05/10 08:25:38;;;;;;;2.42;2.22;;;;;;;28.63;18.08;101468.39;3544523;78;21520;-78
2022/05/10 08:30:30;;;;;;;1.75;1.62;;;;;;;27.09;19.17;101466.98;3600769;78;20923;-78
2022/05/10 08:35:22;;;;;;;3.58;2.30;;;;;;;28.58;17.71;101454.36;3502078;78;22092;-79
2022/05/10 08:40:28;;;;;;;3.08;1.70;;;;;;;31.77;16.78;101438.25;3592609;78;21508;-78
2022/05/10 08:45:19;;;;;;;2.98;1.80;;;;;;;29.99;17.50;101450.52;3621134;78;20918;-78
2022/05/10 08:50:13;;;;;;;3.45;1.85;;;;;;;27.79;18.09;101442.28;3542875;78;20950;-78
2022/05/10 08:55:08;;;;;;;3.85;1.47;;;;;;;26.68;18.92;101440.14;3559070;78;21032;-78
2022/05/10 09:00:33;;;;;;;3.70;2.15;;;;;;;25.66;19.25;101435.34;3536617;78;21213;-78
2022/05/10 09:05:35;;;;;;;2.35;2.00;;;;;;;24.32;20.09;101440.89;3617969;78;20883;-78
2022/05/10 09:10:49;;;;;;;2.83;2.27;;;;;;;24.92;19.83;101434.24;3647009;78;20954;-78
2022/05/10 09:15:46;;;;;;;8.93;1.95;;;;;;;25.57;19.60;101424.16;3624161;78;21444;-77
2022/05/10 09:20:45;;;;;;;2.08;1.98;;;;;;;25.42;19.68;101418.91;3560051;80;21448;-78
2022/05/10 09:25:41;;;;;;;5.70;2.00;;;;;;;25.28;20.46;101417.56;3552892;80;21197;-78
2022/05/10 09:30:35;;;;;;;5.87;2.10;;;;;;;25.39;21.15;101401.23;3560979;80;21547;-77
2022/05/10 09:35:29;;;;;;;5.25;2.10;;;;;;;26.06;19.71;101407.80;3570981;80;20994;-78
2022/05/10 09:40:46;;;;;;;3.10;2.33;;;;;;;29.83;17.85;101394.17;3510486;80;20970;-78
2022/05/10 09:45:40;;;;;;;2.72;2.52;;;;;;;32.42;16.84;101393.88;3551070;80;20962;-78
2022/05/10 09:50:36;;;;;;;4.42;2.00;;;;;;;34.39;15.79;101375.05;3505926;79;22546;-78
2022/05/10 09:55:30;;;;;;;2.15;1.95;;;;;;;35.44;15.01;101372.61;3559767;80;21010;-78
2022/05/10 10:00:52;;;;;;;3.53;1.90;;;;;;;36.18;15.00;101368.09;3564020;80;20959;-79
2022/05/10 10:05:40;;;;;;;2.30;2.10;;;;;;;36.90;14.57;101358.12;3563506;79;20907;-78
2022/05/10 10:10:38;;;;;;;2.15;1.95;;;;;;;37.22;13.38;101340.95;3461642;80;20979;-78
2022/05/10 10:15:43;;;;;;;4.42;2.00;;;;;;;37.01;14.05;101332.81;3527399;80;21905;-78
2022/05/10 10:20:55;;;;;;;3.17;2.47;;;;;;;37.10;13.71;101331.16;3620105;78;20923;-79
2022/05/10 10:25:49;;;;;;;2.67;2.15;;;;;;;36.90;13.04;101338.27;3593486;78;20937;-79
2022/05/10 10:30:58;;;;;;;2.60;2.08;;;;;;;36.82;14.22;101330.30;3622853;78;27483;-79
2022/05/10 10:36:11;;;;;;;1.92;1.80;;;;;;;36.88;13.95;101319.46;3621833;78;21014;-79
2022/05/10 10:41:07;;;;;;;2.10;2.00;;;;;;;36.55;13.73;101308.23;3621682;78;21051;-78
2022/05/10 10:46:24;;;;;;;2.02;1.70;;;;;;;36.22;13.94;101301.45;3593805;78;20946;-79
2022/05/10 10:51:16;;;;;;;2.08;1.87;;;;;;;35.77;14.67;101292.50;3598152;78;20969;-78
2022/05/10 10:56:41;;;;;;;2.52;2.15;;;;;;;35.14;14.95;101286.99;3569959;78;21006;-78
2022/05/10 11:02:10;;;;;;;5.10;2.00;;;;;;;34.73;14.68;101283.45;3614776;78;20971;-78
2022/05/10 11:07:12;;;;;;;2.30;2.10;;;;;;;34.29;14.99;101276.87;3611975;78;21081;-78
2022/05/10 11:12:30;;;;;;;3.30;2.20;;;;;;;34.02;15.21;101271.63;3442315;82;20998;-78
2022/05/10 11:17:29;;;;;;;4.67;2.00;;;;;;;32.90;14.92;101263.73;3466147;82;20970;-78
2022/05/10 11:22:40;;;;;;;2.67;1.90;;;;;;;32.41;14.89;101253.10;3409881;82;21544;-78
2022/05/10 11:27:54;;;;;;;5.47;1.92;;;;;;;32.02;15.42;101248.50;3390216;82;20971;-78
2022/05/10 11:32:59;;;;;;;3.35;2.27;;;;;;;31.29;16.94;101234.71;3377841;85;21139;-77
2022/05/10 11:37:58;;;;;;;2.60;1.70;;;;;;;29.84;16.17;101221.22;3330281;85;20976;-77
2022/05/10 11:43:12;;;;;;;2.58;1.75;;;;;;;28.83;18.39;101214.12;3343675;85;20960;-77
2022/05/10 11:48:27;;;;;;;1.95;1.70;;;;;;;28.21;18.20;101207.43;3405495;82;21737;-78
2022/05/10 11:53:41;;;;;;;2.10;1.87;;;;;;;27.74;18.65;101193.58;3529085;80;20919;-78
2022/05/10 11:58:36;;;;;;;2.25;1.95;;;;;;;27.32;18.67;101197.30;3485096;81;21095;-78
2022/05/10 12:03:44;;;;;;;4.00;2.55;;;;;;;26.87;18.51;101177.05;3491613;79;20980;-78
2022/05/10 12:08:35;;;;;;;2.72;1.65;;;;;;;26.53;18.03;101170.95;3536274;80;21285;-78
2022/05/10 12:24:28;;;;;;;3.87;2.10;;;;;;;26.05;19.61;101148.94;3477459;80;20959;-77
2022/05/10 12:29:41;;;;;;;2.62;1.75;;;;;;;26.28;20.43;101155.13;3477516;81;21461;-78
2022/05/10 12:34:58;;;;;;;1.87;1.62;;;;;;;26.29;19.55;101140.41;3490237;81;20978;-78
2022/05/10 12:40:03;;;;;;;3.77;1.80;;;;;;;26.23;19.91;101141.51;3487210;82;20931;-78
2022/05/10 12:45:32;;;;;;;2.00;1.63;;;;;;;26.18;19.39;101126.17;3508908;81;20923;-78
2022/05/10 12:50:38;;;;;;;3.10;2.02;;;;;;;26.16;20.57;101116.05;3565523;79;21193;-78
2022/05/10 12:55:36;;;;;;;3.62;1.52;;;;;;;26.25;19.71;101102.33;3480507;81;20969;-78
2022/05/10 13:00:30;;;;;;;3.25;1.82;;;;;;;26.14;18.94;101104.59;3565989;80;21021;-78
2022/05/10 13:05:25;;;;;;;;;;;;;;;25.83;19.25;101094.33;3483714;81;20963;-77
2022/05/10 13:10:24;;;;;;;2.90;1.65;;;;;;;25.65;20.20;101075.49;3516447;81;20180;-78
2022/05/10 13:15:21;;;;;;;1.80;1.70;;;;;;;25.70;20.20;101075.28;3472928;81;21420;-77
2022/05/10 13:20:15;;;;;;;1.80;1.70;;;;;;;25.79;20.44;101071.38;3495570;80;20939;-78
2022/05/10 13:25:07;;;;;;;2.45;1.90;;;;;;;25.72;19.01;101066.80;3522445;79;20942;-77
2022/05/10 13:30:18;;;;;;;2.02;1.85;;;;;;;25.60;18.85;101063.30;3528678;79;21444;-77
2022/05/10 13:35:15;;;;;;;3.60;1.55;;;;;;;25.56;19.14;101059.00;3556893;79;20902;-77
2022/05/10 13:40:12;;;;;;;2.67;1.72;;;;;;;25.57;19.66;101047.44;3578679;79;21979;-77
2022/05/10 13:45:05;;;;;;;3.15;1.57;;;;;;;25.59;18.56;101042.44;3582184;78;21001;-77
2022/05/10 13:49:58;;;;;;;2.67;1.60;;;;;;;25.61;18.14;101034.39;3558748;79;21524;-77
2022/05/10 13:55:04;;;;;;;4.70;2.33;;;;;;;25.51;19.44;101029.92;3520390;79;20938;-78
2022/05/10 14:00:00;;;;;;;4.80;1.52;;;;;;;25.60;19.93;101022.03;3505600;79;21523;-78
2022/05/10 14:04:53;;;;;;;2.85;1.50;;;;;;;25.63;19.57;101024.55;3543397;79;21998;-77
2022/05/10 14:09:47;;;;;;;1.98;1.57;;;;;;;25.45;19.15;101011.52;3582470;79;21416;-78
2022/05/10 14:14:39;;;;;;;1.77;1.32;;;;;;;25.46;18.78;101003.48;3535774;79;20895;-78
2022/05/10 14:19:38;;;;;;;1.52;1.42;;;;;;;25.49;18.64;100989.20;3527851;79;20945;-78
2022/05/10 14:24:32;;;;;;;3.98;1.87;;;;;;;25.41;18.37;100994.81;3593027;79;20956;-78
2022/05/10 14:29:39;;;;;;;1.67;1.45;;;;;;;25.55;18.73;100983.61;3512031;81;22100;-78
2022/05/10 14:34:55;;;;;;;2.45;1.87;;;;;;;25.33;17.70;100983.63;3458400;81;21018;-77
2022/05/10 14:39:46;;;;;;;3.23;1.77;;;;;;;25.01;17.20;100975.09;3494166;81;20919;-77
2022/05/10 14:44:42;;;;;;;1.40;1.20;;;;;;;24.76;17.61;100976.52;3522132;80;21401;-77
2022/05/10 14:49:39;;;;;;;1.45;1.35;;;;;;;24.73;18.03;100962.88;3491654;81;20939;-77
2022/05/10 14:54:36;;;;;;;3.00;2.08;;;;;;;24.70;17.89;100957.67;3480083;81;22088;-77
2022/05/10 14:59:50;;;;;;;3.15;1.75;;;;;;;24.74;18.08;100948.65;3461239;81;20969;-77
2022/05/10 15:04:43;;;;;;;1.98;1.60;;;;;;;24.52;17.41;100939.27;3481172;81;20986;-77
2022/05/10 15:09:34;;;;;;;3.72;1.92;;;;;;;24.46;17.67;100930.19;3517309;80;21014;-77
2022/05/10 15:14:28;;;;;;;4.05;1.90;;;;;;;24.41;17.42;100929.48;3417383;81;21061;-77
2022/05/10 15:19:19;;;;;;;3.90;1.62;;;;;;;24.39;17.58;100925.16;3454480;81;21468;-77
2022/05/10 15:24:11;;;;;;;3.27;1.80;;;;;;;24.31;17.67;100920.14;3437308;81;21013;-77
2022/05/10 15:29:03;;;;;;;1.80;1.57;;;;;;;24.14;17.91;100915.44;3529301;78;21417;-77
2022/05/10 15:33:56;;;;;;;2.10;2.00;;;;;;;24.04;18.98;100904.73;3527336;79;21232;-77
2022/05/10 15:38:48;;;;;;;1.85;1.75;;;;;;;24.04;19.22;100894.11;3511736;79;21080;-77
2022/05/10 15:43:39;;;;;;;3.33;2.50;;;;;;;23.96;18.08;100891.27;3549768;79;21983;-77
2022/05/10 15:48:32;;;;;;;3.45;2.20;;;;;;;23.88;18.23;100893.83;3604921;79;20962;-77
2022/05/10 15:53:25;;;;;;;3.15;2.30;;;;;;;23.73;18.10;100891.20;3578858;79;20962;-77
2022/05/10 15:58:16;;;;;;;3.17;2.30;;;;;;;23.71;18.86;100885.08;3497167;79;21002;-76
2022/05/10 16:03:09;;;;;;;2.98;1.90;;;;;;;23.44;18.40;100877.14;3515987;79;20960;-78
2022/05/10 16:08:01;;;;;;;4.15;2.33;;;;;;;23.31;18.15;100878.03;3491809;79;22858;-78
2022/05/10 16:12:52;;;;;;;2.00;1.80;;;;;;;23.21;18.35;100876.16;3487162;79;20990;-77
2022/05/10 16:17:43;;;;;;;1.95;1.70;;;;;;;23.07;18.52;100857.14;3599308;78;21024;-77
2022/05/10 16:22:34;;;;;;;3.42;2.05;;;;;;;22.94;19.61;100846.52;3567264;79;21584;-77
2022/05/10 16:32:35;;;;;;;4.20;1.60;;;;;;;22.42;19.74;100836.63;3581938;78;21147;-76
2022/05/10 16:37:29;;;;;;;4.78;1.60;;;;;;;22.17;20.56;100825.87;3521123;79;21579;-77
2022/05/10 16:42:20;;;;;;;9.23;2.30;;;;;;;22.05;20.79;100832.41;3497037;80;21021;-76
2022/05/10 16:47:15;;;;;;;12.80;3.35;;;;;;;21.94;21.16;100822.56;3542878;78;20973;-76
2022/05/10 16:52:09;;;;;;;16.85;2.87;;;;;;;21.72;22.00;100808.22;3530896;79;21514;-77
2022/05/10 16:57:01;;;;;;;1.65;1.50;;;;;;;21.30;22.65;100806.63;3499293;80;21198;-77
2022/05/10 17:01:52;;;;;;;5.00;1.82;;;;;;;20.92;23.24;100806.69;3542926;80;22367;-77
2022/05/10 17:06:44;;;;;;;2.55;1.72;;;;;;;20.62;24.04;100797.76;3577226;79;21033;-76
2022/05/10 17:11:37;;;;;;;12.15;2.37;;;;;;;20.33;23.76;100795.73;3534452;80;20959;-76
2022/05/10 17:16:29;;;;;;;9.03;3.40;;;;;;;20.18;24.77;100794.30;3517613;79;21527;-76
2022/05/10 17:21:20;;;;;;;3.77;1.75;;;;;;;19.91;25.97;100786.06;3508605;80;20969;-76
2022/05/10 17:26:14;;;;;;;2.33;1.80;;;;;;;19.63;26.84;100776.47;3530984;78;20950;-76
2022/05/10 17:31:10;;;;;;;77.20;10.50;;;;;;;19.28;29.08;100787.25;3529189;78;21455;-75
2022/05/10 17:36:01;;;;;;;20.43;4.78;;;;;;;18.95;28.53;100790.00;3609447;78;21489;-76
2022/05/10 17:40:52;;;;;;;6.83;2.45;;;;;;;18.63;30.02;100791.34;3559054;80;21041;-75
2022/05/10 17:45:44;;;;;;;6.17;1.85;;;;;;;18.32;31.51;100793.56;3525866;78;22090;-75
2022/05/10 17:50:36;;;;;;;4.08;1.75;;;;;;;18.00;31.19;100793.54;3552555;79;21053;-76
2022/05/10 17:55:27;;;;;;;16.20;3.42;;;;;;;17.70;31.72;100789.88;3577805;80;20951;-75
2022/05/10 18:00:22;;;;;;;5.70;1.65;;;;;;;17.41;32.21;100794.15;3589281;78;20923;-75
2022/05/10 18:05:16;;;;;;;7.15;1.87;;;;;;;17.15;32.52;100795.28;3553166;78;20978;-76
2022/05/10 18:10:08;;;;;;;5.35;1.72;;;;;;;16.85;32.21;100794.23;3576952;78;21208;-75
2022/05/10 18:14:59;;;;;;;3.77;2.30;;;;;;;16.58;31.82;100787.80;3547303;78;20954;-75
2022/05/10 18:19:50;;;;;;;4.58;1.92;;;;;;;16.30;32.94;100791.48;3596940;78;20968;-75
2022/05/10 18:24:41;;;;;;;12.70;2.98;;;;;;;16.07;33.08;100792.91;3579168;78;20934;-75
2022/05/10 18:29:32;;;;;;;16.52;3.25;;;;;;;15.73;33.50;100798.23;3585124;78;20950;-75
2022/05/10 18:34:23;;;;;;;15.13;3.67;;;;;;;15.43;35.25;100807.90;3519471;78;21580;-75
2022/05/10 18:39:14;;;;;;;15.08;3.25;;;;;;;15.19;34.76;100808.37;3579380;78;21033;-75
2022/05/10 18:44:06;;;;;;;13.85;2.90;;;;;;;14.96;35.79;100807.50;3566352;78;21030;-75
2022/05/10 18:48:57;;;;;;;21.95;4.62;;;;;;;14.81;36.97;100807.06;3523783;79;21013;-75
2022/05/10 18:53:48;;;;;;;14.10;4.20;;;;;;;14.68;37.40;100815.31;3525681;79;20927;-75
2022/05/10 18:58:41;;;;;;;7.83;4.47;;;;;;;14.49;37.87;100815.25;3516775;79;21630;-75
2022/05/10 19:03:32;;;;;;;9.40;4.33;;;;;;;14.28;38.21;100816.05;3548681;79;20966;-75
2022/05/10 19:08:24;;;;;;;8.37;4.17;;;;;;;14.14;39.16;100816.88;3496580;78;20851;-75
2022/05/10 19:13:15;;;;;;;11.00;4.28;;;;;;;13.96;38.88;100816.37;3572947;79;21460;-75
2022/05/10 19:18:06;;;;;;;5.95;3.52;;;;;;;13.78;39.73;100811.92;3552180;78;21045;-75
2022/05/10 19:22:57;;;;;;;11.25;4.17;;;;;;;13.61;39.87;100811.41;3551699;78;21614;-75
2022/05/10 19:27:49;;;;;;;11.60;3.80;;;;;;;13.43;40.29;100806.05;3481989;79;20970;-75
2022/05/10 19:32:40;;;;;;;9.40;3.42;;;;;;;13.31;40.61;100804.24;3498862;80;20954;-75
2022/05/10 19:37:33;;;;;;;10.08;3.77;;;;;;;13.11;40.83;100801.02;3463951;80;20996;-75
2022/05/10 19:42:24;;;;;;;10.65;4.12;;;;;;;12.92;40.86;100799.97;3554893;78;21232;-75
2022/05/10 19:47:17;;;;;;;10.03;4.35;;;;;;;12.80;41.35;100799.86;3475710;80;21129;-75
2022/05/10 19:52:08;;;;;;;9.95;5.95;;;;;;;12.67;41.55;100799.31;3458606;80;21501;-75
2022/05/10 19:56:59;;;;;;;10.82;4.65;;;;;;;12.53;42.05;100797.42;3485366;80;20912;-75
2022/05/10 20:07:01;;;;;;;18.30;7.10;;;;;;;12.25;42.43;100803.20;3542876;79;20958;-75
2022/05/10 20:11:52;;;;;;;22.55;9.10;;;;;;;12.06;43.23;100797.78;3521251;80;22014;-75
2022/05/10 20:16:44;;;;;;;22.77;7.47;;;;;;;11.96;43.70;100795.91;3494447;80;21489;-75
2022/05/10 20:21:37;;;;;;;13.88;8.10;;;;;;;11.85;43.35;100796.18;3456606;80;21005;-75
2022/05/10 20:26:29;;;;;;;15.93;7.78;;;;;;;11.74;43.89;100787.78;3532706;78;21467;-74
2022/05/10 20:31:21;;;;;;;15.83;6.92;;;;;;;11.61;43.68;100795.87;3467706;80;21427;-74
2022/05/10 20:36:12;;;;;;;10.30;6.80;;;;;;;11.50;44.61;100793.95;3539419;80;21932;-74
2022/05/10 20:41:04;;;;;;;11.90;6.03;;;;;;;11.42;44.51;100791.25;3513876;80;20956;-74
2022/05/10 20:45:54;;;;;;;11.15;6.55;;;;;;;11.32;44.42;100785.45;3537585;80;21010;-74
2022/05/10 20:50:47;;;;;;;14.93;8.63;;;;;;;11.22;45.57;100784.45;3565376;79;21646;-73
2022/05/10 20:55:38;;;;;;;20.30;9.73;;;;;;;11.16;45.19;100786.94;3550716;79;20930;-73
2022/05/10 21:00:31;;;;;;;25.60;11.12;;;;;;;10.99;45.65;100782.34;3545880;78;21042;-73
2022/05/10 21:05:26;;;;;;;25.50;10.38;;;;;;;10.85;45.52;100777.34;3542293;79;20946;-74
2022/05/10 21:10:17;;;;;;;18.37;8.13;;;;;;;10.77;45.92;100775.92;3548769;78;21053;-73
2022/05/10 21:15:10;;;;;;;15.43;9.18;;;;;;;10.68;46.53;100771.43;3517558;80;21471;-73
2022/05/10 21:20:20;;;;;;;10.03;7.05;;;;;;;10.57;47.07;100780.78;3510943;80;21503;-73
2022/05/10 21:25:30;;;;;;;12.90;6.97;;;;;;;10.49;47.88;100782.34;3465299;80;20982;-73
2022/05/10 21:35:36;;;;;;;13.85;6.65;;;;;;;10.29;47.54;100772.42;3507345;81;21488;-73
2022/05/10 21:40:40;;;;;;;10.80;5.87;;;;;;;10.26;48.03;100770.19;3509327;80;24932;-73
2022/05/10 21:45:32;;;;;;;10.95;5.80;;;;;;;10.17;49.17;100769.58;3529783;80;20970;-74
2022/05/10 21:50:27;;;;;;;11.08;5.50;;;;;;;10.12;49.05;100758.22;3556214;79;21235;-74
2022/05/10 21:55:18;;;;;;;9.10;5.47;;;;;;;10.07;49.29;100759.88;3501732;79;20985;-74
2022/05/10 22:00:17;;;;;;;10.65;6.12;;;;;;;10.01;50.05;100754.55;3462761;81;20978;-74
2022/05/10 22:05:09;;;;;;;9.98;5.47;;;;;;;9.93;50.18;100755.27;3514650;80;21662;-74
2022/05/10 22:10:03;;;;;;;8.48;5.62;;;;;;;9.83;49.58;100755.92;3496640;80;21045;-74
2022/05/10 22:15:00;;;;;;;9.68;6.03;;;;;;;9.70;50.15;100740.95;3476956;80;20957;-74
2022/05/10 22:19:48;;;;;;;11.38;6.60;;;;;;;9.70;50.15;100740.95;3515390;80;20956;-74
2022/05/10 22:24:39;;;;;;;9.93;5.45;;;;;;;9.65;50.61;100745.16;3459090;81;20974;-74
2022/05/10 22:29:31;;;;;;;8.80;5.97;;;;;;;9.59;50.32;100734.66;3520163;80;20996;-73
2022/05/10 22:34:22;;;;;;;7.80;5.33;;;;;;;9.52;49.95;100728.02;3607695;78;20970;-74
2022/05/10 22:39:13;;;;;;;9.50;6.00;;;;;;;9.35;50.31;100716.39;3533429;78;21137;-74
2022/05/10 22:44:06;;;;;;;10.65;6.72;;;;;;;9.33;50.96;100721.97;3559720;78;21072;-74
2022/05/10 22:48:57;;;;;;;9.60;6.03;;;;;;;9.33;50.96;100721.97;3530213;80;21441;-73
2022/05/10 22:53:49;;;;;;;11.33;7.03;;;;;;;9.28;51.28;100723.59;3566026;78;20960;-74
2022/05/10 22:58:40;;;;;;;8.03;6.08;;;;;;;9.21;51.48;100729.48;3595438;78;21009;-74
2022/05/10 23:03:33;;;;;;;11.33;6.47;;;;;;;9.13;50.89;100726.72;3583394;78;21293;-74
2022/05/10 23:08:24;;;;;;;8.68;6.15;;;;;;;9.11;50.99;100715.01;3568699;78;21438;-74
2022/05/10 23:13:16;;;;;;;9.38;6.10;;;;;;;9.07;50.98;100705.41;3548689;78;21028;-74
2022/05/10 23:18:09;;;;;;;10.45;6.78;;;;;;;9.01;51.46;100683.20;3539741;78;21506;-74
2022/05/10 23:23:00;;;;;;;9.70;6.40;;;;;;;8.95;51.63;100679.19;3621630;78;20947;-74
2022/05/10 23:27:51;;;;;;;11.83;6.73;;;;;;;8.95;51.63;100679.19;3509710;79;20930;-75